KBAB/BAB METAR and TAF weather

Enter ICAO airport designator
Station Type Date Time Source
KBAB METAR 2019/02/23 01:58 UTC NOAA

KBAB 230158Z AUTO 13004KT 10SM CLR 09/M04 A3012 RMK AO2 SLP203 T00921037 $


Station Type Date Time Source
KBAB Decoded METAR 2019/02/23 01:58 UTC NOAA

Marysville, Beale Air Force Base, CA, United States (KBAB) 39-08N 121-26W
Feb 22, 2019 - 08:58 PM EST / 2019.02.23 0158 UTC
Wind: from the SE (130 degrees) at 5 MPH (4 KT):0
Visibility: 10 mile(s):0
Sky conditions: clear
Temperature: 48.6 F (9.2 C)
Dew Point: 25.3 F (-3.7 C)
Relative Humidity: 39%
Pressure (altimeter): 30.12 in. Hg (1019 hPa)
ob: KBAB 230158Z AUTO 13004KT 10SM CLR 09/M04 A3012 RMK AO2 SLP203 T00921037
cycle: 2

Station Type Date Time Source
KBAB TAF 2019/02/23 19:36 UTC NOAA

TAF TAF COR KBAB 2219/2401 30009KT 9999 SKC QNH3008INS
BECMG 2223/2224 VRB06KT 9999 SKC QNH3010INS
BECMG 2317/2318 16009KT 9999 BKN120 QNH3026INS TX13/2223Z TN01/2312Z LAST NO
AMDS AFT 2301 NEXT 2313


Example: see airport list